Bighorn, MT (59010)

1:41 PM MDT on August 23, 2014 (GMT -0600)
Forsyth Golf Course | Change Station
CLOSE
Current Station
Personal Weather Station
Location: Forsyth, MT
Elevation: 2552 ft
Nearby Weather Stations

Elev 2552 ft 46.25 °N, 106.72 °W | Updated 13 seconds ago

Rain
Rain
62.8 °F
Feels Like 62.8 °F
N
18.3
Wind Variable Wind from NE
Gusts 25.9 mph

Today
High -- | Low -- °F
--% Chance of Precip.
Yesterday
High -- | Low -- °F
Precip. -- in
6:18 AM 8:03 PM
Waning Crescent, 3% visible
Pressure 29.80 in
Visibility 9.0 miles
Clouds Scattered Clouds 700 ft
Mostly Cloudy 1700 ft
Overcast 2900 ft
Dew Point 62 °F
Humidity 99%
Rainfall 0.27 in
Snow Depth Not available.
UV 3 out of 12
Pollen .90 out of 12
Air Quality Not available.
Flu Activity Not available.
SPECI KMLS 231932Z AUTO 06018G24KT 9SM -RA SCT007 BKN017 OVC029 16/14 A2980 RMK AO2 P0008 T01560144

More Conditions Fewer Conditions

Pressure 29.80 in
Visibility 9.0 miles
Clouds Scattered Clouds 700 ft
Mostly Cloudy 1700 ft
Overcast 2900 ft
Dew Point 62 °F
Humidity 99%
Rainfall 0.27 in
Snow Depth Not available.
UV 3 out of 12
Pollen .90 out of 12
Air Quality Not available.
Flu Activity Not available.
SPECI KMLS 231932Z AUTO 06018G24KT 9SM -RA SCT007 BKN017 OVC029 16/14 A2980 RMK AO2 P0008 T01560144

More Conditions Fewer Conditions

10-Day Weather Forecast

Almanac

Astronomy

Aug. 23, 2014 Rise Set
Actual Time 6:18 AM MDT 8:03 PM MDT
Civil Twilight 5:46 AM MDT 8:35 PM MDT
Nautical Twilight 5:07 AM MDT 9:13 PM MDT
Astronomical Twilight 4:25 AM MDT 9:55 PM MDT
Moon 4:34 AM MDT 6:50 PM MDT
Length of Visible Light 14h 48m
Length of Day
13h 45m
Tomorrow will be 3m 3s shorter.
Waning Crescent, 3% of the Moon is Illuminated
Today
Waning Crescent
Aug 25
New
Sep 2
First Quarter
Sep 8
Full
Sep 15
Last Quarter

Today's Extremes

State Highs State Lows

Community

WunderPhotos

Upload Photos

1,746,583 photos uploaded!

WunderBlogs® & News

Nearby

Snow Depth

Station Depth Elevation
Crystal Lake 1 in 6050 ft
Cole Creek 1 in 7850 ft
Burnt Mountain 0 in 5880 ft
Placer Basin 0 in 8830 ft
White Mill 2 in 8700 ft

Earthquake Activity

City Distance Mag. Time & Date
No recent earthquake activity has been reported nearby.
Minimum magnitude displayed is 2.5.

Coastal Water Temperatures

Place Temperature
No Stations Reporting

Nearby Weather Stations